sensor_id;sensor_type;location;lat;lon;timestamp;P1;durP1;ratioP1;P2;durP2;ratioP2
66523;SDS011;53350;52.210;5.160;2024-01-06T00:01:03;10.75;;;6.75;;
66523;SDS011;53350;52.210;5.160;2024-01-06T00:03:30;7.80;;;5.18;;
66523;SDS011;53350;52.210;5.160;2024-01-06T00:05:56;8.55;;;4.82;;
66523;SDS011;53350;52.210;5.160;2024-01-06T00:08:24;8.98;;;5.57;;
66523;SDS011;53350;52.210;5.160;2024-01-06T00:10:51;9.35;;;5.97;;
66523;SDS011;53350;52.210;5.160;2024-01-06T00:13:17;9.95;;;6.50;;
66523;SDS011;53350;52.210;5.160;2024-01-06T00:15:45;9.60;;;5.60;;
66523;SDS011;53350;52.210;5.160;2024-01-06T00:18:11;8.57;;;4.78;;
66523;SDS011;53350;52.210;5.160;2024-01-06T00:20:38;9.73;;;5.68;;
66523;SDS011;53350;52.210;5.160;2024-01-06T00:23:05;9.15;;;4.75;;
66523;SDS011;53350;52.210;5.160;2024-01-06T00:25:31;7.60;;;4.75;;
66523;SDS011;53350;52.210;5.160;2024-01-06T00:27:57;5.55;;;3.40;;
66523;SDS011;53350;52.210;5.160;2024-01-06T00:30:24;8.23;;;4.38;;
66523;SDS011;53350;52.210;5.160;2024-01-06T00:32:52;7.00;;;4.38;;
66523;SDS011;53350;52.210;5.160;2024-01-06T00:35:18;8.55;;;4.18;;
66523;SDS011;53350;52.210;5.160;2024-01-06T00:37:44;5.35;;;3.03;;
66523;SDS011;53350;52.210;5.160;2024-01-06T00:40:11;5.60;;;3.25;;
66523;SDS011;53350;52.210;5.160;2024-01-06T00:42:38;6.75;;;3.35;;
66523;SDS011;53350;52.210;5.160;2024-01-06T00:45:05;5.15;;;2.45;;
66523;SDS011;53350;52.210;5.160;2024-01-06T00:47:32;4.68;;;2.45;;
66523;SDS011;53350;52.210;5.160;2024-01-06T00:50:00;4.70;;;2.38;;
66523;SDS011;53350;52.210;5.160;2024-01-06T00:52:26;5.43;;;2.30;;
66523;SDS011;53350;52.210;5.160;2024-01-06T00:54:53;5.53;;;2.80;;
66523;SDS011;53350;52.210;5.160;2024-01-06T00:57:19;5.82;;;2.80;;
66523;SDS011;53350;52.210;5.160;2024-01-06T00:59:49;5.60;;;2.85;;
66523;SDS011;53350;52.210;5.160;2024-01-06T01:02:15;4.60;;;2.58;;
66523;SDS011;53350;52.210;5.160;2024-01-06T01:04:42;6.00;;;2.90;;
66523;SDS011;53350;52.210;5.160;2024-01-06T01:07:09;5.40;;;2.85;;
66523;SDS011;53350;52.210;5.160;2024-01-06T01:09:36;6.78;;;3.17;;
66523;SDS011;53350;52.210;5.160;2024-01-06T01:12:02;6.57;;;2.75;;
66523;SDS011;53350;52.210;5.160;2024-01-06T01:14:29;6.07;;;2.92;;
66523;SDS011;53350;52.210;5.160;2024-01-06T01:16:55;7.45;;;3.67;;
66523;SDS011;53350;52.210;5.160;2024-01-06T01:19:22;11.05;;;3.33;;
66523;SDS011;53350;52.210;5.160;2024-01-06T01:21:48;7.85;;;3.67;;
66523;SDS011;53350;52.210;5.160;2024-01-06T01:24:16;6.43;;;2.88;;
66523;SDS011;53350;52.210;5.160;2024-01-06T01:26:42;5.93;;;3.10;;
66523;SDS011;53350;52.210;5.160;2024-01-06T01:29:08;6.63;;;3.55;;
66523;SDS011;53350;52.210;5.160;2024-01-06T01:31:35;6.53;;;3.17;;
66523;SDS011;53350;52.210;5.160;2024-01-06T01:34:02;8.00;;;3.78;;
66523;SDS011;53350;52.210;5.160;2024-01-06T01:36:28;8.52;;;4.35;;
66523;SDS011;53350;52.210;5.160;2024-01-06T01:38:54;8.00;;;3.75;;
66523;SDS011;53350;52.210;5.160;2024-01-06T01:41:22;7.90;;;2.95;;
66523;SDS011;53350;52.210;5.160;2024-01-06T01:43:49;7.28;;;2.88;;
66523;SDS011;53350;52.210;5.160;2024-01-06T01:46:22;5.57;;;2.75;;
66523;SDS011;53350;52.210;5.160;2024-01-06T01:48:50;10.63;;;3.07;;
66523;SDS011;53350;52.210;5.160;2024-01-06T01:51:17;5.22;;;2.17;;
66523;SDS011;53350;52.210;5.160;2024-01-06T01:53:44;5.85;;;2.30;;
66523;SDS011;53350;52.210;5.160;2024-01-06T01:56:11;5.03;;;2.65;;
66523;SDS011;53350;52.210;5.160;2024-01-06T01:58:39;5.28;;;2.40;;
66523;SDS011;53350;52.210;5.160;2024-01-06T02:01:06;7.60;;;2.58;;
66523;SDS011;53350;52.210;5.160;2024-01-06T02:03:33;6.72;;;3.17;;
66523;SDS011;53350;52.210;5.160;2024-01-06T02:06:00;6.20;;;2.70;;
66523;SDS011;53350;52.210;5.160;2024-01-06T02:08:27;4.20;;;2.17;;
66523;SDS011;53350;52.210;5.160;2024-01-06T02:10:54;7.50;;;2.70;;
66523;SDS011;53350;52.210;5.160;2024-01-06T02:13:22;4.43;;;2.22;;
66523;SDS011;53350;52.210;5.160;2024-01-06T02:15:50;6.70;;;2.97;;
66523;SDS011;53350;52.210;5.160;2024-01-06T02:18:18;6.00;;;2.60;;
66523;SDS011;53350;52.210;5.160;2024-01-06T02:20:44;5.90;;;2.85;;
66523;SDS011;53350;52.210;5.160;2024-01-06T02:23:13;7.05;;;3.40;;
66523;SDS011;53350;52.210;5.160;2024-01-06T02:25:40;7.30;;;2.35;;
66523;SDS011;53350;52.210;5.160;2024-01-06T02:28:06;4.90;;;2.53;;
66523;SDS011;53350;52.210;5.160;2024-01-06T02:30:33;6.55;;;2.90;;
66523;SDS011;53350;52.210;5.160;2024-01-06T02:32:59;5.38;;;2.45;;
66523;SDS011;53350;52.210;5.160;2024-01-06T02:35:25;6.55;;;2.40;;
66523;SDS011;53350;52.210;5.160;2024-01-06T02:37:52;7.78;;;3.30;;
66523;SDS011;53350;52.210;5.160;2024-01-06T02:40:19;6.95;;;2.97;;
66523;SDS011;53350;52.210;5.160;2024-01-06T02:42:46;7.75;;;3.20;;
66523;SDS011;53350;52.210;5.160;2024-01-06T02:45:12;6.00;;;3.03;;
66523;SDS011;53350;52.210;5.160;2024-01-06T02:47:39;9.05;;;3.28;;
66523;SDS011;53350;52.210;5.160;2024-01-06T02:50:06;6.50;;;2.22;;
66523;SDS011;53350;52.210;5.160;2024-01-06T02:52:33;5.88;;;3.08;;
66523;SDS011;53350;52.210;5.160;2024-01-06T02:54:59;7.55;;;3.40;;
66523;SDS011;53350;52.210;5.160;2024-01-06T02:57:28;6.30;;;2.88;;
66523;SDS011;53350;52.210;5.160;2024-01-06T02:59:55;6.15;;;3.22;;
66523;SDS011;53350;52.210;5.160;2024-01-06T03:02:22;6.60;;;3.03;;
66523;SDS011;53350;52.210;5.160;2024-01-06T03:04:48;6.68;;;3.15;;
66523;SDS011;53350;52.210;5.160;2024-01-06T03:07:15;7.55;;;3.55;;
66523;SDS011;53350;52.210;5.160;2024-01-06T03:09:41;7.93;;;3.33;;
66523;SDS011;53350;52.210;5.160;2024-01-06T03:12:08;8.07;;;3.05;;
66523;SDS011;53350;52.210;5.160;2024-01-06T03:14:36;8.73;;;3.88;;
66523;SDS011;53350;52.210;5.160;2024-01-06T03:17:03;7.78;;;3.83;;
66523;SDS011;53350;52.210;5.160;2024-01-06T03:19:30;10.27;;;3.80;;
66523;SDS011;53350;52.210;5.160;2024-01-06T03:21:56;6.70;;;3.83;;
66523;SDS011;53350;52.210;5.160;2024-01-06T03:24:23;7.60;;;3.88;;
66523;SDS011;53350;52.210;5.160;2024-01-06T03:26:50;6.90;;;3.38;;
66523;SDS011;53350;52.210;5.160;2024-01-06T03:29:17;8.13;;;3.97;;
66523;SDS011;53350;52.210;5.160;2024-01-06T03:31:45;9.02;;;4.28;;
66523;SDS011;53350;52.210;5.160;2024-01-06T03:34:12;9.75;;;4.28;;
66523;SDS011;53350;52.210;5.160;2024-01-06T03:36:38;8.30;;;4.05;;
66523;SDS011;53350;52.210;5.160;2024-01-06T03:39:05;10.07;;;4.15;;
66523;SDS011;53350;52.210;5.160;2024-01-06T03:41:32;11.85;;;4.50;;
66523;SDS011;53350;52.210;5.160;2024-01-06T03:43:59;9.75;;;4.75;;
66523;SDS011;53350;52.210;5.160;2024-01-06T03:46:25;9.80;;;5.05;;
66523;SDS011;53350;52.210;5.160;2024-01-06T03:48:53;8.85;;;5.10;;
66523;SDS011;53350;52.210;5.160;2024-01-06T03:51:19;9.27;;;4.35;;
66523;SDS011;53350;52.210;5.160;2024-01-06T03:53:47;13.45;;;5.88;;
66523;SDS011;53350;52.210;5.160;2024-01-06T03:56:13;9.27;;;4.10;;
66523;SDS011;53350;52.210;5.160;2024-01-06T03:58:40;8.95;;;4.35;;
66523;SDS011;53350;52.210;5.160;2024-01-06T04:01:06;11.98;;;4.95;;
66523;SDS011;53350;52.210;5.160;2024-01-06T04:03:32;8.05;;;4.50;;
66523;SDS011;53350;52.210;5.160;2024-01-06T04:06:00;8.70;;;4.85;;
66523;SDS011;53350;52.210;5.160;2024-01-06T04:08:27;8.20;;;4.45;;
66523;SDS011;53350;52.210;5.160;2024-01-06T04:10:53;8.20;;;4.13;;
66523;SDS011;53350;52.210;5.160;2024-01-06T04:13:20;9.68;;;4.35;;
66523;SDS011;53350;52.210;5.160;2024-01-06T04:15:46;10.88;;;5.63;;
66523;SDS011;53350;52.210;5.160;2024-01-06T04:18:13;8.63;;;4.53;;
66523;SDS011;53350;52.210;5.160;2024-01-06T04:20:39;12.48;;;4.82;;
66523;SDS011;53350;52.210;5.160;2024-01-06T04:23:07;8.35;;;3.70;;
66523;SDS011;53350;52.210;5.160;2024-01-06T04:25:33;10.43;;;4.28;;
66523;SDS011;53350;52.210;5.160;2024-01-06T04:28:00;9.70;;;4.18;;
66523;SDS011;53350;52.210;5.160;2024-01-06T04:30:26;9.23;;;5.38;;
66523;SDS011;53350;52.210;5.160;2024-01-06T04:32:53;11.70;;;4.93;;
66523;SDS011;53350;52.210;5.160;2024-01-06T04:35:19;8.95;;;5.07;;
66523;SDS011;53350;52.210;5.160;2024-01-06T04:37:46;8.27;;;5.20;;
66523;SDS011;53350;52.210;5.160;2024-01-06T04:40:14;9.70;;;4.68;;
66523;SDS011;53350;52.210;5.160;2024-01-06T04:42:41;12.55;;;5.22;;
66523;SDS011;53350;52.210;5.160;2024-01-06T04:45:07;8.40;;;3.38;;
66523;SDS011;53350;52.210;5.160;2024-01-06T04:47:34;9.38;;;5.03;;
66523;SDS011;53350;52.210;5.160;2024-01-06T04:50:01;10.60;;;5.22;;
66523;SDS011;53350;52.210;5.160;2024-01-06T04:52:27;8.55;;;4.88;;
66523;SDS011;53350;52.210;5.160;2024-01-06T04:54:54;10.70;;;4.63;;
66523;SDS011;53350;52.210;5.160;2024-01-06T04:57:22;9.40;;;4.47;;
66523;SDS011;53350;52.210;5.160;2024-01-06T04:59:49;9.32;;;4.95;;
66523;SDS011;53350;52.210;5.160;2024-01-06T05:02:15;11.25;;;5.55;;
66523;SDS011;53350;52.210;5.160;2024-01-06T05:04:41;10.80;;;5.32;;
66523;SDS011;53350;52.210;5.160;2024-01-06T05:07:08;9.90;;;5.07;;
66523;SDS011;53350;52.210;5.160;2024-01-06T05:09:34;9.40;;;3.85;;
66523;SDS011;53350;52.210;5.160;2024-01-06T05:12:01;7.57;;;3.78;;
66523;SDS011;53350;52.210;5.160;2024-01-06T05:14:29;7.90;;;3.40;;
66523;SDS011;53350;52.210;5.160;2024-01-06T05:16:55;8.50;;;3.50;;
66523;SDS011;53350;52.210;5.160;2024-01-06T05:19:21;6.43;;;3.00;;
66523;SDS011;53350;52.210;5.160;2024-01-06T05:21:48;6.63;;;2.67;;
66523;SDS011;53350;52.210;5.160;2024-01-06T05:24:15;6.00;;;2.13;;
66523;SDS011;53350;52.210;5.160;2024-01-06T05:26:41;7.68;;;2.85;;
66523;SDS011;53350;52.210;5.160;2024-01-06T05:29:08;7.05;;;2.85;;
66523;SDS011;53350;52.210;5.160;2024-01-06T05:31:36;9.80;;;3.83;;
66523;SDS011;53350;52.210;5.160;2024-01-06T05:34:02;10.77;;;4.75;;
66523;SDS011;53350;52.210;5.160;2024-01-06T05:36:29;9.18;;;4.00;;
66523;SDS011;53350;52.210;5.160;2024-01-06T05:38:56;8.88;;;4.95;;
66523;SDS011;53350;52.210;5.160;2024-01-06T05:41:22;8.10;;;4.78;;
66523;SDS011;53350;52.210;5.160;2024-01-06T05:43:48;10.57;;;5.07;;
66523;SDS011;53350;52.210;5.160;2024-01-06T05:46:20;8.27;;;4.85;;
66523;SDS011;53350;52.210;5.160;2024-01-06T05:48:48;11.63;;;4.78;;
66523;SDS011;53350;52.210;5.160;2024-01-06T05:51:14;11.60;;;5.03;;
66523;SDS011;53350;52.210;5.160;2024-01-06T05:53:41;8.95;;;4.43;;
66523;SDS011;53350;52.210;5.160;2024-01-06T05:56:08;8.98;;;4.70;;
66523;SDS011;53350;52.210;5.160;2024-01-06T05:58:34;10.02;;;4.10;;
66523;SDS011;53350;52.210;5.160;2024-01-06T06:01:01;11.77;;;4.78;;
66523;SDS011;53350;52.210;5.160;2024-01-06T06:03:27;6.88;;;4.07;;
66523;SDS011;53350;52.210;5.160;2024-01-06T06:05:55;11.52;;;4.03;;
66523;SDS011;53350;52.210;5.160;2024-01-06T06:08:24;6.57;;;3.25;;
66523;SDS011;53350;52.210;5.160;2024-01-06T06:10:50;8.10;;;4.00;;
66523;SDS011;53350;52.210;5.160;2024-01-06T06:13:26;7.13;;;2.35;;
66523;SDS011;53350;52.210;5.160;2024-01-06T06:15:53;9.63;;;3.35;;
66523;SDS011;53350;52.210;5.160;2024-01-06T06:18:20;7.55;;;3.10;;
66523;SDS011;53350;52.210;5.160;2024-01-06T06:20:46;7.97;;;3.25;;
66523;SDS011;53350;52.210;5.160;2024-01-06T06:23:14;5.80;;;2.92;;
66523;SDS011;53350;52.210;5.160;2024-01-06T06:25:41;6.35;;;3.20;;
66523;SDS011;53350;52.210;5.160;2024-01-06T06:28:07;7.50;;;3.47;;
66523;SDS011;53350;52.210;5.160;2024-01-06T06:30:34;10.23;;;3.50;;
66523;SDS011;53350;52.210;5.160;2024-01-06T06:33:00;6.40;;;2.40;;
66523;SDS011;53350;52.210;5.160;2024-01-06T06:35:27;6.50;;;3.10;;
66523;SDS011;53350;52.210;5.160;2024-01-06T06:37:53;6.35;;;3.13;;
66523;SDS011;53350;52.210;5.160;2024-01-06T06:40:21;6.72;;;2.65;;
66523;SDS011;53350;52.210;5.160;2024-01-06T06:42:47;9.48;;;3.10;;
66523;SDS011;53350;52.210;5.160;2024-01-06T06:45:14;7.18;;;3.30;;
66523;SDS011;53350;52.210;5.160;2024-01-06T06:47:40;6.78;;;2.83;;
66523;SDS011;53350;52.210;5.160;2024-01-06T06:50:07;12.65;;;3.72;;
66523;SDS011;53350;52.210;5.160;2024-01-06T06:52:34;5.28;;;2.55;;
66523;SDS011;53350;52.210;5.160;2024-01-06T06:55:01;8.90;;;3.67;;
66523;SDS011;53350;52.210;5.160;2024-01-06T06:57:28;9.52;;;3.05;;
66523;SDS011;53350;52.210;5.160;2024-01-06T06:59:55;7.88;;;4.20;;
66523;SDS011;53350;52.210;5.160;2024-01-06T07:02:21;11.90;;;4.10;;
66523;SDS011;53350;52.210;5.160;2024-01-06T07:04:48;9.77;;;4.45;;
66523;SDS011;53350;52.210;5.160;2024-01-06T07:07:14;12.07;;;5.10;;
66523;SDS011;53350;52.210;5.160;2024-01-06T07:09:41;9.07;;;5.18;;
66523;SDS011;53350;52.210;5.160;2024-01-06T07:12:07;10.57;;;5.45;;
66523;SDS011;53350;52.210;5.160;2024-01-06T07:14:35;11.13;;;5.50;;
66523;SDS011;53350;52.210;5.160;2024-01-06T07:17:01;10.63;;;4.93;;
66523;SDS011;53350;52.210;5.160;2024-01-06T07:19:29;9.73;;;4.55;;
66523;SDS011;53350;52.210;5.160;2024-01-06T07:21:55;11.30;;;4.72;;
66523;SDS011;53350;52.210;5.160;2024-01-06T07:24:21;7.90;;;3.55;;
66523;SDS011;53350;52.210;5.160;2024-01-06T07:26:48;12.20;;;4.95;;
66523;SDS011;53350;52.210;5.160;2024-01-06T07:29:14;8.63;;;5.10;;
66523;SDS011;53350;52.210;5.160;2024-01-06T07:31:42;8.98;;;4.72;;
66523;SDS011;53350;52.210;5.160;2024-01-06T07:34:08;11.07;;;5.13;;
66523;SDS011;53350;52.210;5.160;2024-01-06T07:36:35;11.60;;;4.78;;
66523;SDS011;53350;52.210;5.160;2024-01-06T07:39:03;6.70;;;2.95;;
66523;SDS011;53350;52.210;5.160;2024-01-06T07:41:30;11.75;;;4.75;;
66523;SDS011;53350;52.210;5.160;2024-01-06T07:43:57;9.20;;;4.70;;
66523;SDS011;53350;52.210;5.160;2024-01-06T07:46:23;8.52;;;4.38;;
66523;SDS011;53350;52.210;5.160;2024-01-06T07:48:51;9.70;;;4.55;;
66523;SDS011;53350;52.210;5.160;2024-01-06T07:51:18;9.25;;;4.40;;
66523;SDS011;53350;52.210;5.160;2024-01-06T07:53:44;8.52;;;3.70;;
66523;SDS011;53350;52.210;5.160;2024-01-06T07:56:11;13.30;;;4.05;;
66523;SDS011;53350;52.210;5.160;2024-01-06T07:58:37;9.48;;;4.45;;
66523;SDS011;53350;52.210;5.160;2024-01-06T08:01:03;9.48;;;4.05;;
66523;SDS011;53350;52.210;5.160;2024-01-06T08:03:30;9.30;;;3.92;;
66523;SDS011;53350;52.210;5.160;2024-01-06T08:05:58;8.60;;;3.75;;
66523;SDS011;53350;52.210;5.160;2024-01-06T08:08:24;11.02;;;4.13;;
66523;SDS011;53350;52.210;5.160;2024-01-06T08:10:50;10.48;;;3.92;;
66523;SDS011;53350;52.210;5.160;2024-01-06T08:13:17;9.25;;;3.50;;
66523;SDS011;53350;52.210;5.160;2024-01-06T08:15:43;9.90;;;3.83;;
66523;SDS011;53350;52.210;5.160;2024-01-06T08:18:10;7.95;;;3.35;;
66523;SDS011;53350;52.210;5.160;2024-01-06T08:20:36;8.43;;;3.60;;
66523;SDS011;53350;52.210;5.160;2024-01-06T08:23:04;10.00;;;3.60;;
66523;SDS011;53350;52.210;5.160;2024-01-06T08:25:30;6.78;;;3.47;;
66523;SDS011;53350;52.210;5.160;2024-01-06T08:27:57;8.15;;;3.95;;
66523;SDS011;53350;52.210;5.160;2024-01-06T08:30:23;9.57;;;3.55;;
66523;SDS011;53350;52.210;5.160;2024-01-06T08:32:49;9.40;;;3.00;;
66523;SDS011;53350;52.210;5.160;2024-01-06T08:35:17;10.35;;;3.35;;
66523;SDS011;53350;52.210;5.160;2024-01-06T08:37:44;8.45;;;3.03;;
66523;SDS011;53350;52.210;5.160;2024-01-06T08:40:12;15.15;;;2.97;;
66523;SDS011;53350;52.210;5.160;2024-01-06T08:42:38;2.90;;;1.33;;
66523;SDS011;53350;52.210;5.160;2024-01-06T08:45:05;8.27;;;3.28;;
66523;SDS011;53350;52.210;5.160;2024-01-06T08:47:32;6.93;;;3.00;;
66523;SDS011;53350;52.210;5.160;2024-01-06T08:49:58;8.73;;;2.63;;
66523;SDS011;53350;52.210;5.160;2024-01-06T08:52:24;9.27;;;3.03;;
66523;SDS011;53350;52.210;5.160;2024-01-06T08:54:51;5.53;;;2.63;;
66523;SDS011;53350;52.210;5.160;2024-01-06T08:57:19;7.90;;;2.72;;
66523;SDS011;53350;52.210;5.160;2024-01-06T08:59:45;6.07;;;2.95;;
66523;SDS011;53350;52.210;5.160;2024-01-06T09:02:12;5.65;;;2.80;;
66523;SDS011;53350;52.210;5.160;2024-01-06T09:04:38;7.40;;;2.75;;
66523;SDS011;53350;52.210;5.160;2024-01-06T09:07:05;10.00;;;2.58;;
66523;SDS011;53350;52.210;5.160;2024-01-06T09:09:31;8.07;;;2.70;;
66523;SDS011;53350;52.210;5.160;2024-01-06T09:11:58;8.00;;;2.90;;
66523;SDS011;53350;52.210;5.160;2024-01-06T09:14:26;9.35;;;3.80;;
66523;SDS011;53350;52.210;5.160;2024-01-06T09:16:53;9.52;;;2.92;;
66523;SDS011;53350;52.210;5.160;2024-01-06T09:19:20;8.23;;;2.72;;
66523;SDS011;53350;52.210;5.160;2024-01-06T09:21:46;7.03;;;3.00;;
66523;SDS011;53350;52.210;5.160;2024-01-06T09:24:13;7.55;;;2.97;;
66523;SDS011;53350;52.210;5.160;2024-01-06T09:26:39;11.73;;;3.38;;
66523;SDS011;53350;52.210;5.160;2024-01-06T09:29:06;4.53;;;2.03;;
66523;SDS011;53350;52.210;5.160;2024-01-06T09:31:33;6.63;;;3.00;;
66523;SDS011;53350;52.210;5.160;2024-01-06T09:34:00;8.55;;;3.17;;
66523;SDS011;53350;52.210;5.160;2024-01-06T09:36:27;7.85;;;3.17;;
66523;SDS011;53350;52.210;5.160;2024-01-06T09:38:54;10.57;;;3.10;;
66523;SDS011;53350;52.210;5.160;2024-01-06T09:41:20;7.40;;;3.17;;
66523;SDS011;53350;52.210;5.160;2024-01-06T09:43:47;9.40;;;3.20;;
66523;SDS011;53350;52.210;5.160;2024-01-06T09:46:14;6.90;;;2.45;;
66523;SDS011;53350;52.210;5.160;2024-01-06T09:48:45;6.05;;;2.72;;
66523;SDS011;53350;52.210;5.160;2024-01-06T09:51:13;6.50;;;2.90;;
66523;SDS011;53350;52.210;5.160;2024-01-06T09:53:43;10.30;;;3.30;;
66523;SDS011;53350;52.210;5.160;2024-01-06T09:56:19;9.25;;;3.35;;
66523;SDS011;53350;52.210;5.160;2024-01-06T09:58:45;7.28;;;3.35;;
66523;SDS011;53350;52.210;5.160;2024-01-06T10:01:12;8.20;;;3.10;;
66523;SDS011;53350;52.210;5.160;2024-01-06T10:03:40;5.68;;;2.15;;
66523;SDS011;53350;52.210;5.160;2024-01-06T10:06:08;6.45;;;2.83;;
66523;SDS011;53350;52.210;5.160;2024-01-06T10:08:34;5.28;;;2.03;;
66523;SDS011;53350;52.210;5.160;2024-01-06T10:11:01;8.13;;;2.75;;
66523;SDS011;53350;52.210;5.160;2024-01-06T10:13:28;6.45;;;2.60;;
66523;SDS011;53350;52.210;5.160;2024-01-06T10:15:55;3.67;;;2.10;;
66523;SDS011;53350;52.210;5.160;2024-01-06T10:18:21;7.55;;;2.65;;
66523;SDS011;53350;52.210;5.160;2024-01-06T10:20:48;6.55;;;2.15;;
66523;SDS011;53350;52.210;5.160;2024-01-06T10:23:17;5.40;;;2.35;;
66523;SDS011;53350;52.210;5.160;2024-01-06T10:25:43;8.23;;;2.53;;
66523;SDS011;53350;52.210;5.160;2024-01-06T10:28:11;6.60;;;2.90;;
66523;SDS011;53350;52.210;5.160;2024-01-06T10:30:38;4.72;;;2.22;;
66523;SDS011;53350;52.210;5.160;2024-01-06T10:33:07;6.53;;;3.10;;
66523;SDS011;53350;52.210;5.160;2024-01-06T10:35:35;9.90;;;3.60;;
66523;SDS011;53350;52.210;5.160;2024-01-06T10:38:02;7.57;;;2.90;;
66523;SDS011;53350;52.210;5.160;2024-01-06T10:40:30;6.80;;;2.42;;
66523;SDS011;53350;52.210;5.160;2024-01-06T10:42:57;7.80;;;3.30;;
66523;SDS011;53350;52.210;5.160;2024-01-06T10:45:23;4.72;;;2.20;;
66523;SDS011;53350;52.210;5.160;2024-01-06T10:47:50;9.10;;;3.10;;
66523;SDS011;53350;52.210;5.160;2024-01-06T10:50:17;8.07;;;3.45;;
66523;SDS011;53350;52.210;5.160;2024-01-06T10:52:44;5.57;;;2.78;;
66523;SDS011;53350;52.210;5.160;2024-01-06T10:55:12;8.65;;;3.80;;
66523;SDS011;53350;52.210;5.160;2024-01-06T10:57:43;6.97;;;2.70;;
66523;SDS011;53350;52.210;5.160;2024-01-06T11:00:10;6.20;;;2.63;;
66523;SDS011;53350;52.210;5.160;2024-01-06T11:02:38;6.22;;;2.17;;
66523;SDS011;53350;52.210;5.160;2024-01-06T11:05:07;5.93;;;2.65;;
66523;SDS011;53350;52.210;5.160;2024-01-06T11:07:35;4.30;;;2.47;;
66523;SDS011;53350;52.210;5.160;2024-01-06T11:10:04;6.43;;;2.80;;
66523;SDS011;53350;52.210;5.160;2024-01-06T11:12:36;6.20;;;2.70;;
66523;SDS011;53350;52.210;5.160;2024-01-06T11:15:04;8.35;;;2.90;;
66523;SDS011;53350;52.210;5.160;2024-01-06T11:17:50;8.43;;;3.00;;
66523;SDS011;53350;52.210;5.160;2024-01-06T11:20:18;5.93;;;2.25;;
66523;SDS011;53350;52.210;5.160;2024-01-06T11:22:45;9.02;;;3.58;;
66523;SDS011;53350;52.210;5.160;2024-01-06T11:25:12;9.45;;;3.22;;
66523;SDS011;53350;52.210;5.160;2024-01-06T11:27:40;9.55;;;3.65;;
66523;SDS011;53350;52.210;5.160;2024-01-06T11:30:18;6.90;;;3.03;;
66523;SDS011;53350;52.210;5.160;2024-01-06T11:32:45;10.38;;;3.88;;
66523;SDS011;53350;52.210;5.160;2024-01-06T11:35:14;8.00;;;4.13;;
66523;SDS011;53350;52.210;5.160;2024-01-06T11:37:51;14.40;;;4.38;;
66523;SDS011;53350;52.210;5.160;2024-01-06T11:40:31;10.90;;;3.88;;
66523;SDS011;53350;52.210;5.160;2024-01-06T11:43:00;7.15;;;3.28;;
66523;SDS011;53350;52.210;5.160;2024-01-06T11:45:29;9.05;;;3.67;;
66523;SDS011;53350;52.210;5.160;2024-01-06T11:47:57;7.75;;;3.58;;
66523;SDS011;53350;52.210;5.160;2024-01-06T11:50:27;6.70;;;3.30;;
66523;SDS011;53350;52.210;5.160;2024-01-06T11:52:54;7.32;;;3.72;;
66523;SDS011;53350;52.210;5.160;2024-01-06T11:55:21;7.03;;;3.40;;
66523;SDS011;53350;52.210;5.160;2024-01-06T11:57:48;10.32;;;4.22;;
66523;SDS011;53350;52.210;5.160;2024-01-06T12:00:15;7.95;;;3.97;;
66523;SDS011;53350;52.210;5.160;2024-01-06T12:02:43;9.27;;;3.90;;
66523;SDS011;53350;52.210;5.160;2024-01-06T12:05:13;6.80;;;3.30;;
66523;SDS011;53350;52.210;5.160;2024-01-06T12:07:41;8.30;;;3.45;;
66523;SDS011;53350;52.210;5.160;2024-01-06T12:10:08;5.93;;;2.55;;
66523;SDS011;53350;52.210;5.160;2024-01-06T12:12:35;6.05;;;3.05;;
66523;SDS011;53350;52.210;5.160;2024-01-06T12:15:01;8.25;;;3.22;;
66523;SDS011;53350;52.210;5.160;2024-01-06T12:17:29;7.30;;;3.13;;
66523;SDS011;53350;52.210;5.160;2024-01-06T12:19:57;8.45;;;3.53;;
66523;SDS011;53350;52.210;5.160;2024-01-06T12:22:25;7.95;;;2.13;;
66523;SDS011;53350;52.210;5.160;2024-01-06T12:24:51;8.55;;;3.20;;
66523;SDS011;53350;52.210;5.160;2024-01-06T12:27:18;8.25;;;2.58;;
66523;SDS011;53350;52.210;5.160;2024-01-06T12:29:46;7.88;;;3.28;;
66523;SDS011;53350;52.210;5.160;2024-01-06T12:32:13;9.05;;;4.07;;
66523;SDS011;53350;52.210;5.160;2024-01-06T12:34:39;11.35;;;4.95;;
66523;SDS011;53350;52.210;5.160;2024-01-06T12:37:07;12.70;;;6.13;;
66523;SDS011;53350;52.210;5.160;2024-01-06T12:39:33;13.23;;;4.97;;
66523;SDS011;53350;52.210;5.160;2024-01-06T12:42:00;7.15;;;3.97;;
66523;SDS011;53350;52.210;5.160;2024-01-06T12:44:27;8.88;;;4.10;;
66523;SDS011;53350;52.210;5.160;2024-01-06T12:46:54;11.82;;;4.07;;
66523;SDS011;53350;52.210;5.160;2024-01-06T12:49:20;9.88;;;4.20;;
66523;SDS011;53350;52.210;5.160;2024-01-06T12:51:47;13.15;;;5.30;;
66523;SDS011;53350;52.210;5.160;2024-01-06T12:54:15;11.95;;;5.75;;
66523;SDS011;53350;52.210;5.160;2024-01-06T12:56:42;13.65;;;4.80;;
66523;SDS011;53350;52.210;5.160;2024-01-06T12:59:08;14.27;;;6.30;;
66523;SDS011;53350;52.210;5.160;2024-01-06T13:01:35;10.07;;;5.07;;
66523;SDS011;53350;52.210;5.160;2024-01-06T13:04:01;14.50;;;4.53;;
66523;SDS011;53350;52.210;5.160;2024-01-06T13:06:27;10.15;;;3.80;;
66523;SDS011;53350;52.210;5.160;2024-01-06T13:08:55;7.15;;;3.15;;
66523;SDS011;53350;52.210;5.160;2024-01-06T13:11:23;12.05;;;4.68;;
66523;SDS011;53350;52.210;5.160;2024-01-06T13:13:49;8.18;;;3.78;;
66523;SDS011;53350;52.210;5.160;2024-01-06T13:16:16;9.20;;;4.05;;
66523;SDS011;53350;52.210;5.160;2024-01-06T13:18:42;11.48;;;4.43;;
66523;SDS011;53350;52.210;5.160;2024-01-06T13:21:09;8.77;;;3.47;;
66523;SDS011;53350;52.210;5.160;2024-01-06T13:23:35;7.38;;;3.17;;
66523;SDS011;53350;52.210;5.160;2024-01-06T13:26:02;10.65;;;5.35;;
66523;SDS011;53350;52.210;5.160;2024-01-06T13:28:30;16.85;;;5.30;;
66523;SDS011;53350;52.210;5.160;2024-01-06T13:30:56;10.05;;;4.05;;
66523;SDS011;53350;52.210;5.160;2024-01-06T13:33:22;9.45;;;4.43;;
66523;SDS011;53350;52.210;5.160;2024-01-06T13:35:49;11.32;;;4.28;;
66523;SDS011;53350;52.210;5.160;2024-01-06T13:38:15;9.48;;;4.90;;
66523;SDS011;53350;52.210;5.160;2024-01-06T13:40:42;10.10;;;4.90;;
66523;SDS011;53350;52.210;5.160;2024-01-06T13:43:08;9.70;;;4.65;;
66523;SDS011;53350;52.210;5.160;2024-01-06T13:45:41;11.00;;;4.40;;
66523;SDS011;53350;52.210;5.160;2024-01-06T13:48:09;6.63;;;3.15;;
66523;SDS011;53350;52.210;5.160;2024-01-06T13:50:36;9.80;;;4.15;;
66523;SDS011;53350;52.210;5.160;2024-01-06T13:53:02;12.00;;;5.68;;
66523;SDS011;53350;52.210;5.160;2024-01-06T13:55:29;9.30;;;3.85;;
66523;SDS011;53350;52.210;5.160;2024-01-06T13:57:56;8.77;;;4.60;;
66523;SDS011;53350;52.210;5.160;2024-01-06T14:00:23;6.80;;;3.40;;
66523;SDS011;53350;52.210;5.160;2024-01-06T14:02:52;10.90;;;4.82;;
66523;SDS011;53350;52.210;5.160;2024-01-06T14:05:19;12.23;;;5.40;;
66523;SDS011;53350;52.210;5.160;2024-01-06T14:07:46;10.27;;;4.40;;
66523;SDS011;53350;52.210;5.160;2024-01-06T14:10:14;9.20;;;4.10;;
66523;SDS011;53350;52.210;5.160;2024-01-06T14:12:41;12.50;;;4.43;;
66523;SDS011;53350;52.210;5.160;2024-01-06T14:15:08;9.95;;;4.32;;
66523;SDS011;53350;52.210;5.160;2024-01-06T14:17:35;11.85;;;4.78;;
66523;SDS011;53350;52.210;5.160;2024-01-06T14:20:03;8.88;;;5.03;;
66523;SDS011;53350;52.210;5.160;2024-01-06T14:22:30;7.88;;;4.30;;
66523;SDS011;53350;52.210;5.160;2024-01-06T14:24:57;8.07;;;4.80;;
66523;SDS011;53350;52.210;5.160;2024-01-06T14:27:23;7.90;;;3.08;;
66523;SDS011;53350;52.210;5.160;2024-01-06T14:29:51;7.35;;;4.03;;
66523;SDS011;53350;52.210;5.160;2024-01-06T14:32:20;11.60;;;4.45;;
66523;SDS011;53350;52.210;5.160;2024-01-06T14:34:48;9.10;;;4.88;;
66523;SDS011;53350;52.210;5.160;2024-01-06T14:37:16;13.43;;;4.40;;
66523;SDS011;53350;52.210;5.160;2024-01-06T14:39:42;12.77;;;5.00;;
66523;SDS011;53350;52.210;5.160;2024-01-06T14:42:09;14.43;;;5.50;;
66523;SDS011;53350;52.210;5.160;2024-01-06T14:44:35;9.32;;;4.03;;